CYNR

METAR CYNR 241800Z AUTO 05008KT 9SM SCT060 BKN080 05/M03 A2990 RMK AO2 SLP138
METAR
LOCATION
CYNR
DATE - TIME
241800Z
WIND
050 TRUE @ 8 KNOTS
VISIBILITY
9SM
RUNWAY VISUAL RANGE
NOT REPORTED
WEATHER
CLOUDINESS
SCT060 BKN080
TEMP / DEWPOINT
5 ºC / -3 ºC
ALTIMETER
29.90 in. Hg
RECENT WEATHER
NOT REPORTED
WIND SHEAR
NOT REPORTED
REMARKS
RMK AO2 SLP138
SEA LEVEL PRESSURE: hPa

CYNR

METAR CYNR 241700Z AUTO 04009KT 9SM FEW033 SCT096 04/M03 A2990 RMK AO2 SLP139
METAR
LOCATION
CYNR
DATE - TIME
241700Z
WIND
040 TRUE @ 9 KNOTS
VISIBILITY
9SM
RUNWAY VISUAL RANGE
NOT REPORTED
WEATHER
CLOUDINESS
FEW033 SCT096
TEMP / DEWPOINT
4 ºC / -3 ºC
ALTIMETER
29.90 in. Hg
RECENT WEATHER
NOT REPORTED
WIND SHEAR
NOT REPORTED
REMARKS
RMK AO2 SLP139
SEA LEVEL PRESSURE: hPa

CYNR

METAR CYNR 241600Z AUTO 05010KT 9SM SCT030 OVC041 02/M03 A2990 RMK AO2 SLP139
METAR
LOCATION
CYNR
DATE - TIME
241600Z
WIND
050 TRUE @ 10 KNOTS
VISIBILITY
9SM
RUNWAY VISUAL RANGE
NOT REPORTED
WEATHER
CLOUDINESS
SCT030 OVC041
TEMP / DEWPOINT
2 ºC / -3 ºC
ALTIMETER
29.90 in. Hg
RECENT WEATHER
NOT REPORTED
WIND SHEAR
NOT REPORTED
REMARKS
RMK AO2 SLP139
SEA LEVEL PRESSURE: hPa

Your time UTC time
 
 
Weather data provided by AXYS Technologies Inc., www.axystechnologies.com
 
Station History